createdAt,value
2022-11-15T00:02:06.571Z,97.18
2022-11-15T00:05:52.699Z,97.21
2022-11-15T00:09:41.011Z,97.41
2022-11-15T00:13:31.158Z,97.16
2022-11-15T00:17:16.853Z,97.31
2022-11-15T00:21:07.685Z,97.22
2022-11-15T00:24:53.430Z,97.29
2022-11-15T00:28:38.429Z,97.30
2022-11-15T00:32:24.151Z,97.40
2022-11-15T00:36:11.720Z,97.07
2022-11-15T00:39:57.068Z,96.95
2022-11-15T00:43:44.689Z,97.09
2022-11-15T00:47:30.319Z,97.13
2022-11-15T00:51:15.763Z,97.15
2022-11-15T00:55:01.146Z,97.28
2022-11-15T00:58:46.707Z,97.22
2022-11-15T01:02:32.043Z,96.99
2022-11-15T01:06:17.392Z,96.99
2022-11-15T01:10:02.632Z,97.11
2022-11-15T01:13:48.319Z,97.19
2022-11-15T01:17:33.611Z,97.18
2022-11-15T01:21:20.536Z,97.00
2022-11-15T01:25:06.245Z,97.22
2022-11-15T01:28:52.086Z,97.08
2022-11-15T01:32:37.471Z,97.05
2022-11-15T01:36:24.368Z,97.14
2022-11-15T01:40:12.180Z,97.16
2022-11-15T01:43:59.783Z,97.11
2022-11-15T01:47:48.295Z,97.21
2022-11-15T01:51:35.361Z,97.20
2022-11-15T01:55:24.004Z,97.24
2022-11-15T01:59:11.335Z,97.27
2022-11-15T02:02:57.149Z,97.17
2022-11-15T02:06:43.383Z,97.22
2022-11-15T02:10:29.540Z,97.18
2022-11-15T02:14:16.377Z,97.16
2022-11-15T02:18:13.187Z,97.30
2022-11-15T02:22:12.312Z,96.98
2022-11-15T02:26:15.888Z,97.07
2022-11-15T02:30:21.913Z,97.12
2022-11-15T02:34:13.944Z,97.19
2022-11-15T02:38:06.047Z,97.18
2022-11-15T02:41:55.670Z,97.17
2022-11-15T02:45:47.083Z,97.15
2022-11-15T02:49:36.335Z,96.99
2022-11-15T02:53:25.669Z,96.99
2022-11-15T02:57:17.602Z,96.95
2022-11-15T03:01:10.328Z,97.01
2022-11-15T03:05:00.655Z,97.09
2022-11-15T03:08:59.196Z,97.30
2022-11-15T03:12:52.335Z,97.33
2022-11-15T03:16:44.391Z,97.35
2022-11-15T03:20:32.461Z,97.35
2022-11-15T03:24:25.898Z,97.38
2022-11-15T03:28:15.593Z,97.24
2022-11-15T03:32:05.704Z,97.25
2022-11-15T03:35:52.929Z,97.13
2022-11-15T03:39:38.368Z,97.07
2022-11-15T03:43:33.499Z,97.18
2022-11-15T03:47:23.851Z,97.51
2022-11-15T03:51:10.033Z,97.46
2022-11-15T03:54:57.608Z,97.50
2022-11-15T03:58:42.831Z,97.56
2022-11-15T04:02:29.253Z,97.72
2022-11-15T04:06:14.685Z,97.63
2022-11-15T04:10:06.693Z,97.79
2022-11-15T04:13:52.614Z,98.02
2022-11-15T04:17:39.334Z,98.10
2022-11-15T04:21:42.041Z,97.99
2022-11-15T04:25:32.071Z,98.04
2022-11-15T04:29:35.231Z,98.22
2022-11-15T04:33:20.532Z,97.99
2022-11-15T04:37:16.071Z,98.00
2022-11-15T04:41:01.720Z,98.15
2022-11-15T04:44:47.045Z,98.08
2022-11-15T04:48:32.622Z,98.05
2022-11-15T04:52:18.137Z,98.04
2022-11-15T04:56:03.387Z,98.34
2022-11-15T04:59:49.847Z,98.23
2022-11-15T05:03:52.607Z,98.45
2022-11-15T05:19:49.616Z,97.69
2022-11-15T05:23:35.640Z,97.29
2022-11-15T05:27:21.352Z,97.71
2022-11-15T05:31:07.922Z,97.85
2022-11-15T05:34:53.550Z,97.92
2022-11-15T05:38:39.747Z,98.21
2022-11-15T05:42:28.366Z,98.16
2022-11-15T05:46:15.914Z,98.09
2022-11-15T05:50:01.506Z,98.41
2022-11-15T05:53:48.542Z,98.69
2022-11-15T05:57:34.184Z,98.56
2022-11-15T06:01:19.837Z,98.26
2022-11-15T06:05:06.059Z,98.49
2022-11-15T06:08:51.789Z,98.36
2022-11-15T06:12:37.288Z,98.41
2022-11-15T06:16:22.513Z,98.43
2022-11-15T06:20:09.648Z,98.62
2022-11-15T06:23:55.347Z,98.90
2022-11-15T06:27:40.903Z,98.80
2022-11-15T06:31:26.149Z,98.68
2022-11-15T06:35:11.831Z,98.96
2022-11-15T06:38:58.489Z,99.10
2022-11-15T06:42:44.340Z,99.06
2022-11-15T06:46:29.930Z,98.93
2022-11-15T06:50:15.414Z,98.89
2022-11-15T06:54:01.468Z,98.95
2022-11-15T06:57:52.266Z,98.98
2022-11-15T07:01:38.728Z,99.13
2022-11-15T07:05:24.707Z,99.13
2022-11-15T07:09:10.161Z,99.15
2022-11-15T07:12:57.525Z,99.20
2022-11-15T07:16:42.908Z,99.11
2022-11-15T07:20:28.782Z,99.10
2022-11-15T07:24:14.724Z,99.34
2022-11-15T07:28:01.560Z,99.02
2022-11-15T07:31:47.745Z,99.18
2022-11-15T07:35:33.441Z,99.06
2022-11-15T07:39:18.931Z,99.03
2022-11-15T07:43:06.213Z,99.00
2022-11-15T07:46:51.971Z,99.05
2022-11-15T07:50:37.736Z,98.87
2022-11-15T07:54:23.438Z,99.07
2022-11-15T07:58:10.843Z,99.11
2022-11-15T08:01:56.620Z,98.95
2022-11-15T08:05:44.591Z,98.95
2022-11-15T08:09:30.186Z,98.94
2022-11-15T08:13:16.152Z,99.05
2022-11-15T08:17:02.080Z,98.92
2022-11-15T08:20:47.975Z,98.76
2022-11-15T08:24:33.360Z,98.77
2022-11-15T08:28:19.967Z,98.96
2022-11-15T08:32:05.869Z,98.75
2022-11-15T08:35:51.936Z,98.86
2022-11-15T08:39:37.254Z,98.98
2022-11-15T08:43:23.092Z,99.07
2022-11-15T08:47:08.735Z,99.09
2022-11-15T08:50:57.657Z,98.53
2022-11-15T08:54:43.363Z,98.56
2022-11-15T08:58:29.301Z,98.53
2022-11-15T09:02:17.550Z,98.92
2022-11-15T09:06:03.862Z,98.91
2022-11-15T09:09:49.642Z,99.16
2022-11-15T09:13:37.932Z,98.81
2022-11-15T09:17:25.225Z,98.56
2022-11-15T09:21:11.857Z,98.40
2022-11-15T09:24:57.246Z,98.49
2022-11-15T09:28:43.944Z,98.39
2022-11-15T09:32:37.829Z,97.86
2022-11-15T09:36:24.636Z,97.82
2022-11-15T09:40:17.328Z,97.99
2022-11-15T09:44:25.329Z,97.20
2022-11-15T09:48:26.118Z,96.93
2022-11-15T09:52:09.832Z,96.81
2022-11-15T09:55:48.234Z,96.97
2022-11-15T09:59:34.696Z,97.35
2022-11-15T10:03:20.323Z,97.32
2022-11-15T10:06:55.043Z,97.52
2022-11-15T10:10:29.722Z,97.52
2022-11-15T10:14:00.047Z,97.10
2022-11-15T10:17:57.180Z,96.93
2022-11-15T10:21:27.413Z,96.50
2022-11-15T10:25:02.948Z,95.94
2022-11-15T10:28:32.485Z,95.72
2022-11-15T10:31:59.516Z,96.03
2022-11-15T10:35:29.495Z,96.33
2022-11-15T10:38:59.482Z,96.59
2022-11-15T10:42:31.682Z,96.41
2022-11-15T10:46:44.642Z,96.36
2022-11-15T10:50:27.863Z,96.52
2022-11-15T10:53:56.035Z,95.89
2022-11-15T10:57:25.028Z,95.25
2022-11-15T11:00:54.670Z,95.01
2022-11-15T11:04:21.664Z,95.19
2022-11-15T11:08:00.408Z,95.07
2022-11-15T11:11:45.530Z,95.18
2022-11-15T11:15:16.972Z,95.09
2022-11-15T11:18:51.913Z,95.15
2022-11-15T11:22:25.423Z,94.63
2022-11-15T11:26:04.387Z,94.82
2022-11-15T11:29:43.597Z,94.99
2022-11-15T11:33:18.977Z,95.14
2022-11-15T11:36:56.130Z,94.93
2022-11-15T11:40:33.089Z,94.83
2022-11-15T11:44:18.059Z,94.39
2022-11-15T11:47:53.566Z,94.19
2022-11-15T11:51:26.572Z,94.06
2022-11-15T11:55:03.723Z,94.84
2022-11-15T11:58:39.349Z,95.00
2022-11-15T12:02:18.823Z,95.16
2022-11-15T12:05:45.498Z,95.03
2022-11-15T12:09:19.794Z,94.21
2022-11-15T12:12:51.399Z,94.34
2022-11-15T12:16:25.050Z,94.39
2022-11-15T12:19:51.960Z,94.10
2022-11-15T12:23:23.117Z,94.27
2022-11-15T12:26:55.380Z,94.45
2022-11-15T12:30:24.405Z,94.03
2022-11-15T12:33:56.948Z,94.13
2022-11-15T12:37:56.166Z,94.12
2022-11-15T12:41:24.639Z,94.18
2022-11-15T12:45:01.467Z,94.36
2022-11-15T12:49:00.986Z,94.47
2022-11-15T12:52:26.309Z,94.64
2022-11-15T12:56:19.956Z,94.41
2022-11-15T12:59:56.180Z,94.41
2022-11-15T13:03:28.804Z,95.01
2022-11-15T13:06:57.915Z,94.70
2022-11-15T13:10:36.387Z,94.99
2022-11-15T13:14:03.393Z,94.98
2022-11-15T13:17:38.786Z,94.88
2022-11-15T13:21:28.331Z,95.08
2022-11-15T13:24:56.135Z,94.92
2022-11-15T13:28:30.741Z,94.60
2022-11-15T13:31:57.879Z,94.32
2022-11-15T13:35:27.908Z,94.64
2022-11-15T13:39:06.286Z,95.11
2022-11-15T13:42:33.085Z,95.27
2022-11-15T13:46:18.795Z,95.22
2022-11-15T13:49:45.911Z,95.65
2022-11-15T13:53:13.959Z,95.71
2022-11-15T13:56:42.987Z,95.86
2022-11-15T14:00:34.319Z,95.71
2022-11-15T14:04:03.317Z,96.20
2022-11-15T14:07:31.709Z,95.87
2022-11-15T14:11:19.894Z,96.19
2022-11-15T14:14:49.977Z,96.32
2022-11-15T14:18:43.956Z,96.43
2022-11-15T14:22:23.138Z,97.03
2022-11-15T14:25:58.254Z,97.04
2022-11-15T14:29:30.084Z,96.79
2022-11-15T14:32:57.648Z,96.97
2022-11-15T14:36:24.968Z,96.88
2022-11-15T14:39:52.624Z,96.51
2022-11-15T14:43:20.093Z,96.39
2022-11-15T14:46:47.023Z,96.59
2022-11-15T14:50:18.297Z,96.69
2022-11-15T14:53:46.429Z,96.87
2022-11-15T14:57:13.127Z,96.76
2022-11-15T15:00:41.156Z,97.33
2022-11-15T15:04:08.060Z,96.98
2022-11-15T15:07:35.034Z,97.42
2022-11-15T15:11:02.308Z,97.23
2022-11-15T15:14:28.924Z,97.69
2022-11-15T15:17:56.049Z,97.49
2022-11-15T15:21:26.397Z,97.76
2022-11-15T15:24:53.828Z,97.59
2022-11-15T15:28:20.840Z,98.02
2022-11-15T15:31:47.628Z,98.01
2022-11-15T15:35:17.790Z,98.11
2022-11-15T15:38:44.782Z,98.28
2022-11-15T15:42:11.379Z,98.20
2022-11-15T15:45:40.392Z,98.27
2022-11-15T15:49:07.092Z,98.33
2022-11-15T15:52:33.912Z,98.55
2022-11-15T15:56:00.997Z,98.76
2022-11-15T15:59:27.705Z,99.34
2022-11-15T16:02:55.249Z,99.13
2022-11-15T16:06:37.750Z,99.14
2022-11-15T16:10:05.600Z,99.17
2022-11-15T16:13:32.348Z,99.19
2022-11-15T16:16:59.300Z,99.00
2022-11-15T16:20:36.410Z,99.35
2022-11-15T16:24:03.879Z,99.44
2022-11-15T16:27:30.541Z,99.56
2022-11-15T16:31:05.946Z,99.72
2022-11-15T16:34:37.277Z,99.84
2022-11-15T16:38:06.952Z,99.78
2022-11-15T16:41:34.314Z,99.65
2022-11-15T16:45:01.104Z,99.33
2022-11-15T16:48:29.352Z,99.34
2022-11-15T16:51:56.150Z,99.23
2022-11-15T16:55:25.664Z,99.67
2022-11-15T16:58:53.232Z,99.86
2022-11-15T17:02:20.067Z,99.93
2022-11-15T17:05:47.105Z,99.92
2022-11-15T17:09:17.754Z,99.96
2022-11-15T17:12:45.435Z,99.98
2022-11-15T17:16:14.967Z,100.00
2022-11-15T17:19:42.090Z,100.00
2022-11-15T17:23:12.390Z,100.00
2022-11-15T17:26:41.001Z,100.00
2022-11-15T17:30:13.208Z,100.00
2022-11-15T17:33:41.772Z,100.00
2022-11-15T17:37:08.696Z,100.00
2022-11-15T17:40:36.064Z,100.00
2022-11-15T17:44:04.316Z,100.00
2022-11-15T17:47:31.243Z,100.00
2022-11-15T17:51:01.119Z,100.00
2022-11-15T17:54:28.546Z,100.00
2022-11-15T17:57:55.944Z,100.00
2022-11-15T18:01:25.762Z,100.00
2022-11-15T18:04:52.662Z,100.00
2022-11-15T18:08:21.626Z,100.00
2022-11-15T18:11:51.557Z,100.00
2022-11-15T18:15:20.875Z,100.00
2022-11-15T18:18:48.861Z,100.00
2022-11-15T18:22:15.715Z,100.00
2022-11-15T18:25:43.383Z,100.00
2022-11-15T18:29:11.186Z,100.00
2022-11-15T18:32:38.409Z,100.00
2022-11-15T18:36:07.757Z,100.00
2022-11-15T18:39:35.183Z,100.00
2022-11-15T18:43:02.350Z,100.00
2022-11-15T18:46:30.877Z,100.00
2022-11-15T18:49:59.771Z,100.00
2022-11-15T18:53:26.582Z,100.00
2022-11-15T18:56:53.677Z,100.00
2022-11-15T19:00:22.566Z,100.00
2022-11-15T19:03:52.462Z,100.00
2022-11-15T19:07:18.455Z,100.00
2022-11-15T19:10:46.145Z,100.00
2022-11-15T19:14:15.177Z,100.00
2022-11-15T19:17:42.873Z,100.00
2022-11-15T19:21:15.723Z,100.00
2022-11-15T19:24:43.785Z,100.00
2022-11-15T19:28:12.146Z,100.00
2022-11-15T19:31:40.684Z,100.00
2022-11-15T19:35:10.128Z,100.00
2022-11-15T19:38:38.588Z,100.00
2022-11-15T19:42:07.110Z,100.00
2022-11-15T19:45:35.219Z,100.00
2022-11-15T19:49:02.992Z,100.00
2022-11-15T19:52:29.754Z,100.00
2022-11-15T19:56:01.044Z,100.00
2022-11-15T19:59:28.139Z,100.00
2022-11-15T20:02:55.094Z,100.00
2022-11-15T20:06:23.898Z,100.00
2022-11-15T20:09:50.867Z,100.00
2022-11-15T20:13:17.626Z,100.00
2022-11-15T20:16:44.546Z,100.00
2022-11-15T20:20:13.558Z,100.00
2022-11-15T20:23:40.737Z,100.00
2022-11-15T20:27:08.677Z,100.00
2022-11-15T20:30:35.525Z,100.00
2022-11-15T20:34:02.742Z,100.00
2022-11-15T20:37:29.806Z,100.00
2022-11-15T20:41:00.199Z,100.00
2022-11-15T20:44:27.530Z,100.00
2022-11-15T20:47:57.976Z,100.00
2022-11-15T20:51:24.880Z,100.00
2022-11-15T20:54:51.542Z,100.00
2022-11-15T20:58:19.939Z,100.00
2022-11-15T21:01:48.166Z,100.00
2022-11-15T21:05:15.149Z,100.00
2022-11-15T21:08:59.513Z,100.00
2022-11-15T21:12:26.911Z,100.00
2022-11-15T21:15:56.139Z,100.00
2022-11-15T21:19:28.025Z,100.00
2022-11-15T21:22:58.411Z,100.00
2022-11-15T21:26:25.292Z,100.00
2022-11-15T21:29:52.158Z,100.00
2022-11-15T21:33:19.056Z,100.00
2022-11-15T21:36:46.540Z,100.00
2022-11-15T21:40:15.030Z,100.00
2022-11-15T21:43:41.816Z,100.00
2022-11-15T21:47:09.036Z,100.00
2022-11-15T21:50:36.051Z,100.00
2022-11-15T21:54:03.149Z,100.00
2022-11-15T21:57:31.201Z,100.00
2022-11-15T22:01:18.559Z,100.00
2022-11-15T22:04:46.895Z,100.00
2022-11-15T22:08:13.772Z,100.00
2022-11-15T22:11:40.996Z,100.00
2022-11-15T22:15:09.984Z,100.00
2022-11-15T22:18:37.926Z,100.00
2022-11-15T22:22:05.116Z,100.00
2022-11-15T22:25:32.123Z,100.00
2022-11-15T22:28:59.078Z,100.00
2022-11-15T22:32:26.321Z,100.00
2022-11-15T22:35:53.816Z,100.00
2022-11-15T22:39:21.494Z,100.00
2022-11-15T22:42:48.398Z,100.00
2022-11-15T22:46:15.399Z,100.00
2022-11-15T22:49:44.973Z,100.00
2022-11-15T22:53:12.435Z,100.00
2022-11-15T22:56:39.403Z,100.00
2022-11-15T23:00:09.590Z,100.00
2022-11-15T23:03:37.051Z,100.00
2022-11-15T23:07:04.351Z,100.00
2022-11-15T23:10:49.107Z,100.00
2022-11-15T23:14:16.342Z,100.00
2022-11-15T23:17:43.830Z,100.00
2022-11-15T23:21:16.106Z,100.00
2022-11-15T23:24:43.053Z,100.00
2022-11-15T23:28:09.895Z,100.00
2022-11-15T23:32:01.479Z,100.00
2022-11-15T23:35:29.979Z,100.00
2022-11-15T23:38:57.294Z,100.00
2022-11-15T23:42:25.244Z,100.00
2022-11-15T23:45:52.363Z,100.00
2022-11-15T23:49:19.245Z,100.00
2022-11-15T23:52:46.516Z,100.00
2022-11-15T23:56:15.870Z,100.00
2022-11-15T23:59:44.573Z,100.00
